Belfast Municipal (BST)
Belfast, ME
Field Elevation: 198
Lat: 44°24.56N  Long: 69°00.71W
CTAF/Unicom Freq: 122.9750
   
     For Weather-by-Phone, call 207-930-7071
Weather Advisories
2021-06-20   18:29 Z
Altimeter 29.71" Hg
Wind 280° @ 7 KT
Gusts 14 KT
Visibility 10 SM
Ceiling FEW070
Temperature 27° C (81° F)
Dewpoint 13° C (55° F)
Relative Humidity 41%
Density Altitude 1,900 feet
Condensation Altitude 7,400 feet
Heat Index: 27° C (81° F)
Wind and Runways
Indicated Runway = 33
Headwind = 4 kt
Crosswind = 5 kt
History
 
 
 
More Info
NOAA Forecast
 
 
About Us
Belfort Instrument
 
 
FAA Disclaimer: The data displayed is for advisory purposes only and is not to be used for flight planning or operations. For official data, please call 207-930-7071 to hear the current automated AWOS voice message.
  METAR BST 201829Z AUTO 28007G14KT 10 SM FEW070 27/13 A2971